createdAt,value
2023-03-19T00:00:29.174Z,2.83
2023-03-19T00:02:56.230Z,2.55
2023-03-19T00:05:23.023Z,2.28
2023-03-19T00:07:49.718Z,1.95
2023-03-19T00:10:16.450Z,2.25
2023-03-19T00:12:43.087Z,2.30
2023-03-19T00:15:14.153Z,2.55
2023-03-19T00:17:43.087Z,1.75
2023-03-19T00:20:11.681Z,1.90
2023-03-19T00:22:39.708Z,1.95
2023-03-19T00:25:08.109Z,2.03
2023-03-19T00:27:34.905Z,2.17
2023-03-19T00:30:02.626Z,1.92
2023-03-19T00:32:30.165Z,1.98
2023-03-19T00:34:57.333Z,2.50
2023-03-19T00:37:23.974Z,2.80
2023-03-19T00:39:50.602Z,2.88
2023-03-19T00:42:17.553Z,2.00
2023-03-19T00:44:44.210Z,2.00
2023-03-19T00:47:11.227Z,2.72
2023-03-19T00:49:37.849Z,3.17
2023-03-19T00:52:04.573Z,1.73
2023-03-19T00:54:32.267Z,2.10
2023-03-19T00:56:59.174Z,1.80
2023-03-19T00:59:26.175Z,2.20
2023-03-19T01:01:52.855Z,2.00
2023-03-19T01:04:20.255Z,1.90
2023-03-19T01:06:46.949Z,1.80
2023-03-19T01:09:13.531Z,2.30
2023-03-19T01:11:40.339Z,2.90
2023-03-19T01:14:07.361Z,1.77
2023-03-19T01:16:34.832Z,2.63
2023-03-19T01:19:02.300Z,2.58
2023-03-19T01:21:31.124Z,1.80
2023-03-19T01:23:58.429Z,2.45
2023-03-19T01:26:25.369Z,3.42
2023-03-19T01:28:52.407Z,4.07
2023-03-19T01:31:19.444Z,4.78
2023-03-19T01:33:46.479Z,3.97
2023-03-19T01:36:13.640Z,4.35
2023-03-19T01:38:40.626Z,3.45
2023-03-19T01:41:07.651Z,3.72
2023-03-19T01:43:34.281Z,3.05
2023-03-19T01:46:31.223Z,2.97
2023-03-19T01:49:01.470Z,3.45
2023-03-19T01:51:32.408Z,4.13
2023-03-19T01:54:02.536Z,3.80
2023-03-19T01:56:34.703Z,2.67
2023-03-19T01:59:09.538Z,3.55
2023-03-19T02:01:42.753Z,3.25
2023-03-19T02:04:09.822Z,4.00
2023-03-19T02:06:37.723Z,2.90
2023-03-19T02:09:04.675Z,2.90
2023-03-19T02:11:32.248Z,3.03
2023-03-19T02:13:59.002Z,2.63
2023-03-19T02:16:27.045Z,4.30
2023-03-19T02:18:54.182Z,3.40
2023-03-19T02:21:21.808Z,3.85
2023-03-19T02:24:12.469Z,3.67
2023-03-19T02:26:40.324Z,3.53
2023-03-19T02:29:07.470Z,3.70
2023-03-19T02:31:34.138Z,3.63
2023-03-19T02:34:04.356Z,3.90
2023-03-19T02:36:37.902Z,3.60
2023-03-19T02:39:07.241Z,3.53
2023-03-19T02:41:35.551Z,3.40
2023-03-19T02:44:04.396Z,3.95
2023-03-19T02:46:31.701Z,4.93
2023-03-19T02:48:59.018Z,3.90
2023-03-19T02:51:25.782Z,4.75
2023-03-19T02:53:52.347Z,4.43
2023-03-19T02:56:19.032Z,3.78
2023-03-19T02:58:45.777Z,3.75
2023-03-19T03:01:12.463Z,3.22
2023-03-19T03:03:39.153Z,2.97
2023-03-19T03:06:06.080Z,3.40
2023-03-19T03:08:33.452Z,3.35
2023-03-19T03:11:00.057Z,2.75
2023-03-19T03:13:27.780Z,2.80
2023-03-19T03:15:54.497Z,2.50
2023-03-19T03:18:21.160Z,2.47
2023-03-19T03:20:48.099Z,2.40
2023-03-19T03:23:14.829Z,2.45
2023-03-19T03:25:41.592Z,2.58
2023-03-19T03:28:08.814Z,2.55
2023-03-19T03:30:36.180Z,2.45
2023-03-19T03:33:02.869Z,2.80
2023-03-19T03:35:29.568Z,2.55
2023-03-19T03:37:56.296Z,2.60
2023-03-19T03:40:22.859Z,2.80
2023-03-19T03:42:49.468Z,2.70
2023-03-19T03:45:16.077Z,2.65
2023-03-19T03:47:42.751Z,2.22
2023-03-19T03:50:10.946Z,2.65
2023-03-19T03:52:38.378Z,2.30
2023-03-19T03:55:05.539Z,2.55
2023-03-19T03:57:32.278Z,2.28
2023-03-19T03:59:59.115Z,2.50
2023-03-19T04:02:26.094Z,2.60
2023-03-19T04:04:53.412Z,2.60
2023-03-19T04:07:20.608Z,2.55
2023-03-19T04:09:47.417Z,2.80
2023-03-19T04:12:14.688Z,4.15
2023-03-19T04:14:41.513Z,3.63
2023-03-19T04:17:08.151Z,2.95
2023-03-19T04:19:34.766Z,2.85
2023-03-19T04:22:03.329Z,3.85
2023-03-19T04:24:30.216Z,3.17
2023-03-19T04:26:56.783Z,2.90
2023-03-19T04:29:23.600Z,2.35
2023-03-19T04:31:51.053Z,2.33
2023-03-19T04:34:17.715Z,2.30
2023-03-19T04:36:44.427Z,2.50
2023-03-19T04:39:11.029Z,2.78
2023-03-19T04:41:38.574Z,2.35
2023-03-19T04:44:05.866Z,1.95
2023-03-19T04:46:32.581Z,2.33
2023-03-19T04:48:59.823Z,2.53
2023-03-19T04:51:26.451Z,2.42
2023-03-19T04:53:53.132Z,2.75
2023-03-19T04:56:19.897Z,3.10
2023-03-19T04:58:46.660Z,2.10
2023-03-19T05:01:13.576Z,2.70
2023-03-19T05:03:40.580Z,2.58
2023-03-19T05:06:07.762Z,2.72
2023-03-19T05:08:34.366Z,2.50
2023-03-19T05:11:01.063Z,2.50
2023-03-19T05:13:27.697Z,2.80
2023-03-19T05:15:55.557Z,2.30
2023-03-19T05:18:22.548Z,2.22
2023-03-19T05:20:49.620Z,2.20
2023-03-19T05:23:17.847Z,2.65
2023-03-19T05:25:44.576Z,2.75
2023-03-19T05:28:11.515Z,3.33
2023-03-19T05:30:38.317Z,2.38
2023-03-19T05:33:05.054Z,2.22
2023-03-19T05:35:31.852Z,2.88
2023-03-19T05:37:58.756Z,2.40
2023-03-19T05:40:25.902Z,2.90
2023-03-19T05:42:52.559Z,2.92
2023-03-19T05:45:19.530Z,2.40
2023-03-19T05:47:50.081Z,3.95
2023-03-19T05:50:18.421Z,3.03
2023-03-19T05:52:45.576Z,2.30
2023-03-19T05:55:12.519Z,3.00
2023-03-19T05:57:39.255Z,2.97
2023-03-19T06:00:07.596Z,3.40
2023-03-19T06:02:35.774Z,3.40
2023-03-19T06:05:02.612Z,2.97
2023-03-19T06:07:29.510Z,2.58
2023-03-19T06:09:56.336Z,3.63
2023-03-19T06:12:23.747Z,3.20
2023-03-19T06:14:50.467Z,2.83
2023-03-19T06:17:17.211Z,2.40
2023-03-19T06:19:43.927Z,2.78
2023-03-19T06:22:10.855Z,5.13
2023-03-19T06:24:37.524Z,3.78
2023-03-19T06:27:04.308Z,3.60
2023-03-19T06:29:30.874Z,2.60
2023-03-19T06:31:58.244Z,2.70
2023-03-19T06:34:25.425Z,5.07
2023-03-19T06:36:53.703Z,2.97
2023-03-19T06:39:21.636Z,2.80
2023-03-19T06:41:48.279Z,2.85
2023-03-19T06:44:15.015Z,3.05
2023-03-19T06:46:41.767Z,2.67
2023-03-19T06:49:08.451Z,3.60
2023-03-19T06:51:35.100Z,3.55
2023-03-19T06:54:01.762Z,3.25
2023-03-19T06:56:29.456Z,3.53
2023-03-19T06:58:56.464Z,4.32
2023-03-19T07:01:23.267Z,3.10
2023-03-19T07:03:50.196Z,3.05
2023-03-19T07:06:16.906Z,3.63
2023-03-19T07:08:46.358Z,3.78
2023-03-19T07:11:14.407Z,3.28
2023-03-19T07:13:41.231Z,3.97
2023-03-19T07:16:08.664Z,4.50
2023-03-19T07:18:36.002Z,4.07
2023-03-19T07:21:02.637Z,3.20
2023-03-19T07:23:29.221Z,3.60
2023-03-19T07:25:55.968Z,3.75
2023-03-19T07:28:23.149Z,3.80
2023-03-19T07:30:53.072Z,3.78
2023-03-19T07:33:21.115Z,4.25
2023-03-19T07:35:47.878Z,4.00
2023-03-19T07:38:14.981Z,3.58
2023-03-19T07:40:45.590Z,4.65
2023-03-19T07:43:18.193Z,3.72
2023-03-19T07:45:45.001Z,3.90
2023-03-19T07:48:12.625Z,3.88
2023-03-19T07:50:39.336Z,3.63
2023-03-19T07:53:06.288Z,3.90
2023-03-19T07:55:32.946Z,3.42
2023-03-19T07:58:00.005Z,4.00
2023-03-19T08:00:27.297Z,3.50
2023-03-19T08:02:53.955Z,3.60
2023-03-19T08:05:20.602Z,3.85
2023-03-19T08:07:49.481Z,3.45
2023-03-19T08:10:16.294Z,4.75
2023-03-19T08:12:42.970Z,4.05
2023-03-19T08:15:11.360Z,5.05
2023-03-19T08:17:38.497Z,4.72
2023-03-19T08:20:08.194Z,3.67
2023-03-19T08:25:06.960Z,4.55
2023-03-19T08:27:36.117Z,5.35
2023-03-19T08:30:05.152Z,5.70
2023-03-19T08:32:31.996Z,6.65
2023-03-19T08:34:58.693Z,6.35
2023-03-19T08:37:25.281Z,6.95
2023-03-19T08:39:54.683Z,6.47
2023-03-19T08:42:22.701Z,7.18
2023-03-19T08:44:50.172Z,8.65
2023-03-19T08:47:16.907Z,7.32
2023-03-19T08:49:43.523Z,7.63
2023-03-19T08:52:10.272Z,6.65
2023-03-19T08:54:36.923Z,6.78
2023-03-19T08:57:03.954Z,6.10
2023-03-19T08:59:33.768Z,6.03
2023-03-19T09:02:01.535Z,5.38
2023-03-19T09:04:28.676Z,4.05
2023-03-19T09:06:55.837Z,4.43
2023-03-19T09:09:24.762Z,4.32
2023-03-19T09:11:51.632Z,3.75
2023-03-19T09:14:20.046Z,3.53
2023-03-19T09:16:47.026Z,3.30
2023-03-19T09:19:13.718Z,3.97
2023-03-19T09:21:40.505Z,3.28
2023-03-19T09:24:07.368Z,3.70
2023-03-19T09:26:34.084Z,2.97
2023-03-19T09:29:02.173Z,4.07
2023-03-19T09:31:29.904Z,3.72
2023-03-19T09:33:56.747Z,3.42
2023-03-19T09:36:23.446Z,3.40
2023-03-19T09:38:50.072Z,3.80
2023-03-19T09:41:31.439Z,2.97
2023-03-19T09:44:02.218Z,3.75
2023-03-19T09:46:38.109Z,2.95
2023-03-19T09:49:19.385Z,2.70
2023-03-19T09:52:24.625Z,3.25
2023-03-19T09:54:52.777Z,3.40
2023-03-19T09:57:20.229Z,3.30
2023-03-19T09:59:48.248Z,2.35
2023-03-19T10:02:35.340Z,2.65
2023-03-19T10:05:08.231Z,2.83
2023-03-19T10:07:42.455Z,2.45
2023-03-19T10:10:31.082Z,2.83
2023-03-19T10:13:35.316Z,3.07
2023-03-19T10:16:03.687Z,2.42
2023-03-19T10:18:36.026Z,3.08
2023-03-19T10:21:32.201Z,2.35
2023-03-19T10:24:11.345Z,2.97
2023-03-19T10:26:37.988Z,2.90
2023-03-19T10:29:10.658Z,2.70
2023-03-19T10:31:56.167Z,2.08
2023-03-19T10:34:31.509Z,2.53
2023-03-19T10:37:00.528Z,2.33
2023-03-19T10:39:28.300Z,4.10
2023-03-19T10:42:21.409Z,3.97
2023-03-19T10:44:54.033Z,4.13
2023-03-19T10:47:26.240Z,6.05
2023-03-19T10:49:53.500Z,6.03
2023-03-19T10:52:29.306Z,5.20
2023-03-19T10:55:21.484Z,5.90
2023-03-19T10:57:50.997Z,4.50
2023-03-19T11:00:25.033Z,3.72
2023-03-19T11:02:54.243Z,3.70
2023-03-19T11:05:31.803Z,3.42
2023-03-19T11:08:07.335Z,3.17
2023-03-19T11:10:36.042Z,4.25
2023-03-19T11:13:15.982Z,3.10
2023-03-19T11:15:42.976Z,2.78
2023-03-19T11:18:39.555Z,3.63
2023-03-19T11:21:21.259Z,3.65
2023-03-19T11:24:00.096Z,3.47
2023-03-19T11:26:28.633Z,3.80
2023-03-19T11:29:02.830Z,4.03
2023-03-19T11:31:41.200Z,4.00
2023-03-19T11:34:28.922Z,5.10
2023-03-19T11:37:22.635Z,7.43
2023-03-19T11:40:14.607Z,5.53
2023-03-19T11:43:08.229Z,4.18
2023-03-19T11:45:42.697Z,4.00
2023-03-19T11:48:33.944Z,3.30
2023-03-19T11:51:25.540Z,3.15
2023-03-19T11:54:10.850Z,3.17
2023-03-19T11:56:37.423Z,3.40
2023-03-19T11:59:06.847Z,2.83
2023-03-19T12:01:58.951Z,3.65
2023-03-19T12:04:53.725Z,3.70
2023-03-19T12:07:52.429Z,3.20
2023-03-19T12:10:47.811Z,2.72
2023-03-19T12:13:24.020Z,3.13
2023-03-19T12:16:01.284Z,4.88
2023-03-19T12:18:43.071Z,4.03
2023-03-19T12:21:23.644Z,4.10
2023-03-19T12:24:48.354Z,3.17
2023-03-19T12:27:34.648Z,3.63
2023-03-19T12:30:24.274Z,4.00
2023-03-19T12:33:09.630Z,3.92
2023-03-19T12:35:39.013Z,4.47
2023-03-19T12:38:20.383Z,4.03
2023-03-19T12:41:03.885Z,4.03
2023-03-19T12:43:53.278Z,3.63
2023-03-19T12:46:51.134Z,3.75
2023-03-19T12:49:39.485Z,3.13
2023-03-19T12:52:33.698Z,3.00
2023-03-19T12:55:04.513Z,3.30
2023-03-19T12:57:54.215Z,3.67
2023-03-19T13:00:47.536Z,4.18
2023-03-19T13:03:21.152Z,4.28
2023-03-19T13:06:08.525Z,4.05
2023-03-19T13:08:37.917Z,4.13
2023-03-19T13:11:20.010Z,4.82
2023-03-19T13:14:15.596Z,4.53
2023-03-19T13:17:02.128Z,3.40
2023-03-19T13:19:54.250Z,2.50
2023-03-19T13:22:24.412Z,2.60
2023-03-19T13:24:52.376Z,2.38
2023-03-19T13:27:27.096Z,2.60
2023-03-19T13:30:12.202Z,2.28
2023-03-19T13:32:42.039Z,2.20
2023-03-19T13:35:15.824Z,2.15
2023-03-19T13:37:43.813Z,2.60
2023-03-19T13:40:42.180Z,1.95
2023-03-19T13:43:30.476Z,1.45
2023-03-19T13:46:06.200Z,1.50
2023-03-19T13:48:33.137Z,1.33
2023-03-19T13:51:01.820Z,1.15
2023-03-19T13:53:34.705Z,1.75
2023-03-19T13:56:12.758Z,1.10
2023-03-19T13:58:54.051Z,0.95
2023-03-19T14:01:37.432Z,1.10
2023-03-19T14:04:06.241Z,1.40
2023-03-19T14:06:39.765Z,1.00
2023-03-19T14:09:30.379Z,0.70
2023-03-19T14:12:10.995Z,0.93
2023-03-19T14:14:43.900Z,1.00
2023-03-19T14:17:15.845Z,0.68
2023-03-19T14:19:43.346Z,0.95
2023-03-19T14:22:33.328Z,0.82
2023-03-19T14:25:21.283Z,1.15
2023-03-19T14:28:03.415Z,1.20
2023-03-19T14:30:40.680Z,1.45
2023-03-19T14:33:20.041Z,1.83
2023-03-19T14:35:49.660Z,1.05
2023-03-19T14:38:38.289Z,1.00
2023-03-19T14:41:06.340Z,0.80
2023-03-19T14:43:52.844Z,0.65
2023-03-19T14:46:26.533Z,0.70
2023-03-19T14:49:31.012Z,0.73
2023-03-19T14:52:00.479Z,1.23
2023-03-19T14:54:53.176Z,1.10
2023-03-19T14:57:32.885Z,1.42
2023-03-19T14:59:59.976Z,1.77
2023-03-19T15:02:43.524Z,5.43
2023-03-19T15:05:24.296Z,1.45
2023-03-19T15:07:55.715Z,1.20
2023-03-19T15:10:26.824Z,1.10
2023-03-19T15:13:11.648Z,4.35
2023-03-19T15:16:00.529Z,1.20
2023-03-19T15:18:27.833Z,0.60
2023-03-19T15:20:56.161Z,0.60
2023-03-19T15:23:28.389Z,0.68
2023-03-19T15:26:03.956Z,0.60
2023-03-19T15:28:38.110Z,0.50
2023-03-19T15:31:26.627Z,0.35
2023-03-19T15:33:53.657Z,0.60
2023-03-19T15:36:33.183Z,0.50
2023-03-19T15:39:05.126Z,0.60
2023-03-19T15:41:35.102Z,0.70
2023-03-19T15:44:07.074Z,0.65
2023-03-19T15:46:37.662Z,0.85
2023-03-19T15:49:16.677Z,0.70
2023-03-19T15:51:45.906Z,0.75
2023-03-19T15:54:12.667Z,0.60
2023-03-19T15:56:39.531Z,0.90
2023-03-19T15:59:06.331Z,0.75
2023-03-19T16:01:33.789Z,0.70
2023-03-19T16:04:04.120Z,0.82
2023-03-19T16:06:35.974Z,0.80
2023-03-19T16:09:27.102Z,1.00
2023-03-19T16:11:56.108Z,1.00
2023-03-19T16:14:26.388Z,1.27
2023-03-19T16:17:03.704Z,0.95
2023-03-19T16:19:34.708Z,1.05
2023-03-19T16:22:16.494Z,1.23
2023-03-19T16:24:45.917Z,1.10
2023-03-19T16:27:20.528Z,1.30
2023-03-19T16:29:55.695Z,1.30
2023-03-19T16:32:24.622Z,1.38
2023-03-19T16:34:52.425Z,1.50
2023-03-19T16:37:37.733Z,1.67
2023-03-19T16:40:24.322Z,2.25
2023-03-19T16:42:56.086Z,1.92
2023-03-19T16:45:30.718Z,1.55
2023-03-19T16:47:59.496Z,1.50
2023-03-19T16:50:35.302Z,1.20
2023-03-19T16:53:05.499Z,1.23
2023-03-19T16:55:36.689Z,1.65
2023-03-19T16:58:13.496Z,1.55
2023-03-19T17:00:43.117Z,1.50
2023-03-19T17:05:39.105Z,1.60
2023-03-19T17:08:05.782Z,1.90
2023-03-19T17:10:33.371Z,2.55
2023-03-19T17:13:01.431Z,2.13
2023-03-19T17:15:37.802Z,2.22
2023-03-19T17:18:19.061Z,2.20
2023-03-19T17:21:08.995Z,1.98
2023-03-19T17:23:36.035Z,2.35
2023-03-19T17:26:09.478Z,3.35
2023-03-19T17:28:37.152Z,2.50
2023-03-19T17:31:03.966Z,2.50
2023-03-19T17:33:31.139Z,2.15
2023-03-19T17:35:58.984Z,1.98
2023-03-19T17:38:32.404Z,1.50
2023-03-19T17:40:59.058Z,1.80
2023-03-19T17:43:25.791Z,1.40
2023-03-19T17:45:53.953Z,2.10
2023-03-19T17:48:26.142Z,2.22
2023-03-19T17:50:58.383Z,1.85
2023-03-19T17:53:25.436Z,6.07
2023-03-19T17:55:52.088Z,7.80
2023-03-19T17:58:21.272Z,8.40
2023-03-19T18:00:49.259Z,6.60
2023-03-19T18:03:18.767Z,16.17
2023-03-19T18:05:45.706Z,15.48
2023-03-19T18:08:17.312Z,27.05
2023-03-19T18:10:44.166Z,8.13
2023-03-19T18:13:10.884Z,5.60
2023-03-19T18:15:40.155Z,5.75
2023-03-19T18:18:13.557Z,4.20
2023-03-19T18:20:41.103Z,7.75
2023-03-19T18:23:07.781Z,4.30
2023-03-19T18:25:35.669Z,2.67
2023-03-19T18:28:03.681Z,2.05
2023-03-19T18:30:33.165Z,3.40
2023-03-19T18:35:34.348Z,12.95
2023-03-19T18:38:01.035Z,9.45
2023-03-19T18:40:29.822Z,5.72
2023-03-19T18:42:56.748Z,7.17
2023-03-19T18:45:26.881Z,4.53
2023-03-19T18:47:54.709Z,4.25
2023-03-19T18:50:23.126Z,6.95
2023-03-19T18:52:51.652Z,10.50
2023-03-19T18:55:19.719Z,9.27
2023-03-19T18:58:00.410Z,10.05
2023-03-19T19:00:33.553Z,28.58
2023-03-19T19:03:01.570Z,8.18
2023-03-19T19:05:32.968Z,4.85
2023-03-19T19:08:01.768Z,3.20
2023-03-19T19:10:33.162Z,3.50
2023-03-19T19:13:01.303Z,3.88
2023-03-19T19:15:35.650Z,2.95
2023-03-19T19:18:26.566Z,2.65
2023-03-19T19:20:54.239Z,2.80
2023-03-19T19:23:22.185Z,2.58
2023-03-19T19:25:55.030Z,2.83
2023-03-19T19:28:27.993Z,4.28
2023-03-19T19:30:57.241Z,4.10
2023-03-19T19:33:27.985Z,3.05
2023-03-19T19:35:55.401Z,3.40
2023-03-19T19:38:22.186Z,6.60
2023-03-19T19:40:52.586Z,3.70
2023-03-19T19:43:22.603Z,3.10
2023-03-19T19:45:52.704Z,2.72
2023-03-19T19:48:28.100Z,3.05
2023-03-19T19:50:55.800Z,3.53
2023-03-19T19:53:25.234Z,3.25
2023-03-19T19:55:53.465Z,3.00
2023-03-19T19:58:25.511Z,2.75
2023-03-19T20:01:02.852Z,5.10
2023-03-19T20:03:32.778Z,3.28
2023-03-19T20:06:01.449Z,3.60
2023-03-19T20:08:28.816Z,5.03
2023-03-19T20:10:56.471Z,6.65
2023-03-19T20:13:37.805Z,14.15
2023-03-19T20:16:05.606Z,16.63
2023-03-19T20:18:35.502Z,4.97
2023-03-19T20:21:04.002Z,4.43
2023-03-19T20:23:31.423Z,4.45
2023-03-19T20:25:58.273Z,3.75
2023-03-19T20:28:32.502Z,3.83
2023-03-19T20:30:59.164Z,4.72
2023-03-19T20:33:26.052Z,4.15
2023-03-19T20:35:53.597Z,3.38
2023-03-19T20:38:20.353Z,3.47
2023-03-19T20:40:51.102Z,4.10
2023-03-19T20:43:28.682Z,3.38
2023-03-19T20:45:57.588Z,14.48
2023-03-19T20:48:25.638Z,56.05
2023-03-19T20:50:52.343Z,34.78
2023-03-19T20:53:19.182Z,71.00
2023-03-19T20:55:47.498Z,26.10
2023-03-19T20:58:34.523Z,20.92
2023-03-19T21:01:01.271Z,7.15
2023-03-19T21:03:30.254Z,5.15
2023-03-19T21:06:06.044Z,5.30
2023-03-19T21:08:37.122Z,17.15
2023-03-19T21:11:03.999Z,60.47
2023-03-19T21:13:31.841Z,38.67
2023-03-19T21:15:58.691Z,32.97
2023-03-19T21:18:25.488Z,56.67
2023-03-19T21:20:57.754Z,21.70
2023-03-19T21:23:38.196Z,8.10
2023-03-19T21:26:19.200Z,4.40
2023-03-19T21:28:48.899Z,6.15
2023-03-19T21:31:20.793Z,8.13
2023-03-19T21:33:51.593Z,9.55
2023-03-19T21:36:18.548Z,9.02
2023-03-19T21:38:45.346Z,6.07
2023-03-19T21:41:23.670Z,7.53
2023-03-19T21:43:59.217Z,4.70
2023-03-19T21:46:28.366Z,5.00
2023-03-19T21:48:56.462Z,4.72
2023-03-19T21:51:25.190Z,18.33
2023-03-19T21:53:52.435Z,29.67
2023-03-19T21:56:24.910Z,19.17
2023-03-19T21:58:53.107Z,28.00
2023-03-19T22:01:23.759Z,15.35
2023-03-19T22:03:51.789Z,6.78
2023-03-19T22:06:19.155Z,4.47
2023-03-19T22:08:46.669Z,5.75
2023-03-19T22:11:22.457Z,5.35
2023-03-19T22:13:49.254Z,6.38
2023-03-19T22:16:23.106Z,8.18
2023-03-19T22:18:51.072Z,6.90
2023-03-19T22:21:19.956Z,7.57
2023-03-19T22:23:47.509Z,7.68
2023-03-19T22:29:25.605Z,6.07
2023-03-19T22:31:53.135Z,5.38
2023-03-19T22:34:23.054Z,5.85
2023-03-19T22:36:49.800Z,6.75
2023-03-19T22:39:16.927Z,5.75
2023-03-19T22:41:46.347Z,5.35
2023-03-19T22:44:30.264Z,6.18
2023-03-19T22:46:59.054Z,6.45
2023-03-19T22:49:27.952Z,6.57
2023-03-19T22:51:55.723Z,6.40
2023-03-19T22:54:22.441Z,5.80
2023-03-19T22:56:49.051Z,4.70
2023-03-19T22:59:15.965Z,5.45
2023-03-19T23:01:47.175Z,6.15
2023-03-19T23:04:26.211Z,5.72
2023-03-19T23:06:54.695Z,5.18
2023-03-19T23:09:29.396Z,5.35
2023-03-19T23:11:57.691Z,4.75
2023-03-19T23:14:31.873Z,5.72
2023-03-19T23:17:04.215Z,5.30
2023-03-19T23:19:33.374Z,5.50
2023-03-19T23:22:02.501Z,5.05
2023-03-19T23:24:30.557Z,5.78
2023-03-19T23:26:59.143Z,4.10
2023-03-19T23:29:32.337Z,5.40
2023-03-19T23:31:59.172Z,5.20
2023-03-19T23:34:26.876Z,6.40
2023-03-19T23:36:53.592Z,5.57
2023-03-19T23:39:21.016Z,5.20
2023-03-19T23:41:50.879Z,5.47
2023-03-19T23:44:19.338Z,5.00
2023-03-19T23:46:49.330Z,5.28
2023-03-19T23:49:24.900Z,5.82
2023-03-19T23:51:51.550Z,6.30
2023-03-19T23:54:33.014Z,6.72
2023-03-19T23:57:02.695Z,6.43
